Jerome, Arizona
Current Conditions -  °F | °C
As of 4:53 AM on Thursday 30 Oct 2014 (Local Time) from KPRC Reporting Station
Clear Clear  
Wind Chill: 39°   Ceiling: Unl
Heat Index: 43°   Visibility: 10mi
Dew Point: 30°   Wind: 6mph
Humidity: 60%   Direction: 200°SSW
Pressure: 30.23"   Gusts: NA
Location:  34.75°N, 112.11°W
Report Text: KPRC 301153Z AUTO 20005KT 10SM CLR 06/M01 A3023 RMK AO2 SLP180 T00611011 10111 20050 56001
Loading
Personal Weather Stations






























Interactive Weather Map
Tropical Storm Tracking
New forecast layout! Learn more

10-Day Weather Forecast

Advertisements
Track Severe Weather on mobile